sensor_id;sensor_type;location;lat;lon;timestamp;temperature;humidity
19397;DHT22;9834;48.076;11.878;2023-02-15T00:01:34;-0.80;99.90
19397;DHT22;9834;48.076;11.878;2023-02-15T00:04:02;-0.80;99.90
19397;DHT22;9834;48.076;11.878;2023-02-15T00:06:31;-0.80;99.90
19397;DHT22;9834;48.076;11.878;2023-02-15T00:08:59;-0.80;99.90
19397;DHT22;9834;48.076;11.878;2023-02-15T00:11:27;-0.80;99.90
19397;DHT22;9834;48.076;11.878;2023-02-15T00:14:10;-0.80;99.90
19397;DHT22;9834;48.076;11.878;2023-02-15T00:16:38;-0.80;99.90
19397;DHT22;9834;48.076;11.878;2023-02-15T00:19:06;-0.80;99.90
19397;DHT22;9834;48.076;11.878;2023-02-15T00:21:36;-0.80;99.90
19397;DHT22;9834;48.076;11.878;2023-02-15T00:24:05;-0.80;99.90
19397;DHT22;9834;48.076;11.878;2023-02-15T00:26:33;-0.80;99.90
19397;DHT22;9834;48.076;11.878;2023-02-15T00:29:01;-0.80;99.90
19397;DHT22;9834;48.076;11.878;2023-02-15T00:31:30;-0.90;99.90
19397;DHT22;9834;48.076;11.878;2023-02-15T00:34:02;-0.90;99.90
19397;DHT22;9834;48.076;11.878;2023-02-15T00:36:29;-0.90;99.90
19397;DHT22;9834;48.076;11.878;2023-02-15T00:38:58;-0.80;99.90
19397;DHT22;9834;48.076;11.878;2023-02-15T00:41:26;-0.80;99.90
19397;DHT22;9834;48.076;11.878;2023-02-15T00:43:53;-0.80;99.90
19397;DHT22;9834;48.076;11.878;2023-02-15T00:46:21;-0.90;99.90
19397;DHT22;9834;48.076;11.878;2023-02-15T00:48:49;-0.90;99.90
19397;DHT22;9834;48.076;11.878;2023-02-15T00:51:17;-0.90;99.90
19397;DHT22;9834;48.076;11.878;2023-02-15T00:53:44;-1.00;99.90
19397;DHT22;9834;48.076;11.878;2023-02-15T00:56:14;-0.90;99.90
19397;DHT22;9834;48.076;11.878;2023-02-15T00:58:42;-0.90;99.90
19397;DHT22;9834;48.076;11.878;2023-02-15T01:01:12;-0.90;99.90
19397;DHT22;9834;48.076;11.878;2023-02-15T01:03:40;-0.90;99.90
19397;DHT22;9834;48.076;11.878;2023-02-15T01:06:08;-0.80;99.90
19397;DHT22;9834;48.076;11.878;2023-02-15T01:08:36;-0.90;99.90
19397;DHT22;9834;48.076;11.878;2023-02-15T01:11:04;-0.90;99.90
19397;DHT22;9834;48.076;11.878;2023-02-15T01:13:34;-0.90;99.90
19397;DHT22;9834;48.076;11.878;2023-02-15T01:16:02;-0.90;99.90
19397;DHT22;9834;48.076;11.878;2023-02-15T01:18:30;-1.00;99.90
19397;DHT22;9834;48.076;11.878;2023-02-15T01:20:58;-1.00;99.90
19397;DHT22;9834;48.076;11.878;2023-02-15T01:23:25;-0.90;99.90
19397;DHT22;9834;48.076;11.878;2023-02-15T01:25:53;-0.90;99.90
19397;DHT22;9834;48.076;11.878;2023-02-15T01:28:20;-0.90;99.90
19397;DHT22;9834;48.076;11.878;2023-02-15T01:30:49;-0.90;99.90
19397;DHT22;9834;48.076;11.878;2023-02-15T01:33:16;-0.90;99.90
19397;DHT22;9834;48.076;11.878;2023-02-15T01:35:45;-0.90;99.90
19397;DHT22;9834;48.076;11.878;2023-02-15T01:38:13;-0.90;99.90
19397;DHT22;9834;48.076;11.878;2023-02-15T01:40:42;-0.90;99.90
19397;DHT22;9834;48.076;11.878;2023-02-15T01:43:10;-0.90;99.90
19397;DHT22;9834;48.076;11.878;2023-02-15T01:45:39;-0.90;99.90
19397;DHT22;9834;48.076;11.878;2023-02-15T01:48:17;-1.00;99.90
19397;DHT22;9834;48.076;11.878;2023-02-15T01:50:49;-0.90;99.90
19397;DHT22;9834;48.076;11.878;2023-02-15T01:53:20;-1.00;99.90
19397;DHT22;9834;48.076;11.878;2023-02-15T01:55:52;-1.00;99.90
19397;DHT22;9834;48.076;11.878;2023-02-15T01:58:22;-1.00;99.90
19397;DHT22;9834;48.076;11.878;2023-02-15T02:00:51;-1.00;99.90
19397;DHT22;9834;48.076;11.878;2023-02-15T02:03:27;-1.00;99.90
19397;DHT22;9834;48.076;11.878;2023-02-15T02:05:56;-1.00;99.90
19397;DHT22;9834;48.076;11.878;2023-02-15T02:08:24;-1.00;99.90
19397;DHT22;9834;48.076;11.878;2023-02-15T02:10:52;-1.00;99.90
19397;DHT22;9834;48.076;11.878;2023-02-15T02:13:19;-0.90;99.90
19397;DHT22;9834;48.076;11.878;2023-02-15T02:15:53;-0.90;99.90
19397;DHT22;9834;48.076;11.878;2023-02-15T02:18:37;-0.90;99.90
19397;DHT22;9834;48.076;11.878;2023-02-15T02:24:30;-0.80;99.90
19397;DHT22;9834;48.076;11.878;2023-02-15T02:27:29;-0.80;99.90
19397;DHT22;9834;48.076;11.878;2023-02-15T02:33:46;-0.80;99.90
19397;DHT22;9834;48.076;11.878;2023-02-15T02:36:23;-0.90;99.90
19397;DHT22;9834;48.076;11.878;2023-02-15T02:39:02;-0.80;99.90
19397;DHT22;9834;48.076;11.878;2023-02-15T02:41:41;-0.80;99.90
19397;DHT22;9834;48.076;11.878;2023-02-15T02:44:14;-0.90;99.90
19397;DHT22;9834;48.076;11.878;2023-02-15T02:46:49;-0.90;99.90
19397;DHT22;9834;48.076;11.878;2023-02-15T02:49:31;-0.90;99.90
19397;DHT22;9834;48.076;11.878;2023-02-15T02:52:00;-0.90;99.90
19397;DHT22;9834;48.076;11.878;2023-02-15T02:54:29;-0.90;99.90
19397;DHT22;9834;48.076;11.878;2023-02-15T02:56:59;-0.90;99.90
19397;DHT22;9834;48.076;11.878;2023-02-15T02:59:31;-0.80;99.90
19397;DHT22;9834;48.076;11.878;2023-02-15T03:02:03;-0.90;99.90
19397;DHT22;9834;48.076;11.878;2023-02-15T03:04:36;-0.80;99.90
19397;DHT22;9834;48.076;11.878;2023-02-15T03:07:06;-0.80;99.90
19397;DHT22;9834;48.076;11.878;2023-02-15T03:09:37;-0.80;99.90
19397;DHT22;9834;48.076;11.878;2023-02-15T03:12:10;-0.80;99.90
19397;DHT22;9834;48.076;11.878;2023-02-15T03:14:38;-0.90;99.90
19397;DHT22;9834;48.076;11.878;2023-02-15T03:17:08;-0.80;99.90
19397;DHT22;9834;48.076;11.878;2023-02-15T03:19:38;-0.90;99.90
19397;DHT22;9834;48.076;11.878;2023-02-15T03:22:10;-1.00;99.90
19397;DHT22;9834;48.076;11.878;2023-02-15T03:24:42;-0.90;99.90
19397;DHT22;9834;48.076;11.878;2023-02-15T03:27:13;-0.90;99.90
19397;DHT22;9834;48.076;11.878;2023-02-15T03:29:45;-0.80;99.90
19397;DHT22;9834;48.076;11.878;2023-02-15T03:32:15;-0.90;99.90
19397;DHT22;9834;48.076;11.878;2023-02-15T03:34:44;-0.90;99.90
19397;DHT22;9834;48.076;11.878;2023-02-15T03:37:18;-0.90;99.90
19397;DHT22;9834;48.076;11.878;2023-02-15T03:39:51;-0.90;99.90
19397;DHT22;9834;48.076;11.878;2023-02-15T03:42:24;-0.80;99.90
19397;DHT22;9834;48.076;11.878;2023-02-15T03:44:56;-0.80;99.90
19397;DHT22;9834;48.076;11.878;2023-02-15T03:47:28;-0.90;99.90
19397;DHT22;9834;48.076;11.878;2023-02-15T03:50:01;-0.80;99.90
19397;DHT22;9834;48.076;11.878;2023-02-15T03:52:50;-0.90;99.90
19397;DHT22;9834;48.076;11.878;2023-02-15T03:55:18;-0.90;99.90
19397;DHT22;9834;48.076;11.878;2023-02-15T03:57:46;-0.90;99.90
19397;DHT22;9834;48.076;11.878;2023-02-15T04:00:40;-0.90;99.90
19397;DHT22;9834;48.076;11.878;2023-02-15T04:03:30;-0.90;99.90
19397;DHT22;9834;48.076;11.878;2023-02-15T04:06:02;-0.90;99.90
19397;DHT22;9834;48.076;11.878;2023-02-15T04:08:30;-0.90;99.90
19397;DHT22;9834;48.076;11.878;2023-02-15T04:11:11;-0.90;99.90
19397;DHT22;9834;48.076;11.878;2023-02-15T04:13:38;-0.90;99.90
19397;DHT22;9834;48.076;11.878;2023-02-15T04:16:06;-0.90;99.90
19397;DHT22;9834;48.076;11.878;2023-02-15T04:18:34;-0.90;99.90
19397;DHT22;9834;48.076;11.878;2023-02-15T04:21:22;-0.90;99.90
19397;DHT22;9834;48.076;11.878;2023-02-15T04:24:07;-1.00;99.90
19397;DHT22;9834;48.076;11.878;2023-02-15T04:26:52;-1.00;99.90
19397;DHT22;9834;48.076;11.878;2023-02-15T04:29:20;-1.00;99.90
19397;DHT22;9834;48.076;11.878;2023-02-15T04:31:48;-1.00;99.90
19397;DHT22;9834;48.076;11.878;2023-02-15T04:34:16;-1.00;99.90
19397;DHT22;9834;48.076;11.878;2023-02-15T04:36:45;-1.00;99.90
19397;DHT22;9834;48.076;11.878;2023-02-15T04:39:13;-1.00;99.90
19397;DHT22;9834;48.076;11.878;2023-02-15T04:41:41;-0.90;99.90
19397;DHT22;9834;48.076;11.878;2023-02-15T04:44:08;-1.00;99.90
19397;DHT22;9834;48.076;11.878;2023-02-15T04:46:36;-0.90;99.90
19397;DHT22;9834;48.076;11.878;2023-02-15T04:49:03;-1.00;99.90
19397;DHT22;9834;48.076;11.878;2023-02-15T04:51:31;-1.00;99.90
19397;DHT22;9834;48.076;11.878;2023-02-15T04:53:59;-1.10;99.90
19397;DHT22;9834;48.076;11.878;2023-02-15T04:56:27;-1.30;99.90
19397;DHT22;9834;48.076;11.878;2023-02-15T04:58:55;-1.40;99.90
19397;DHT22;9834;48.076;11.878;2023-02-15T05:01:22;-1.40;99.90
19397;DHT22;9834;48.076;11.878;2023-02-15T05:03:50;-1.40;99.90
19397;DHT22;9834;48.076;11.878;2023-02-15T05:06:17;-1.40;99.90
19397;DHT22;9834;48.076;11.878;2023-02-15T05:08:45;-1.40;99.90
19397;DHT22;9834;48.076;11.878;2023-02-15T05:11:13;-1.40;99.90
19397;DHT22;9834;48.076;11.878;2023-02-15T05:13:41;-1.30;99.90
19397;DHT22;9834;48.076;11.878;2023-02-15T05:16:08;-1.30;99.90
19397;DHT22;9834;48.076;11.878;2023-02-15T05:18:35;-1.30;99.90
19397;DHT22;9834;48.076;11.878;2023-02-15T05:21:03;-1.40;99.90
19397;DHT22;9834;48.076;11.878;2023-02-15T05:23:31;-1.20;99.90
19397;DHT22;9834;48.076;11.878;2023-02-15T05:25:58;-1.30;99.90
19397;DHT22;9834;48.076;11.878;2023-02-15T05:28:45;-1.30;99.90
19397;DHT22;9834;48.076;11.878;2023-02-15T05:31:14;-1.40;99.90
19397;DHT22;9834;48.076;11.878;2023-02-15T05:33:42;-1.40;99.90
19397;DHT22;9834;48.076;11.878;2023-02-15T05:36:10;-1.40;99.90
19397;DHT22;9834;48.076;11.878;2023-02-15T05:38:38;-1.30;99.90
19397;DHT22;9834;48.076;11.878;2023-02-15T05:41:06;-1.30;99.90
19397;DHT22;9834;48.076;11.878;2023-02-15T05:43:33;-1.30;99.90
19397;DHT22;9834;48.076;11.878;2023-02-15T05:46:03;-1.30;99.90
19397;DHT22;9834;48.076;11.878;2023-02-15T05:48:31;-1.20;99.90
19397;DHT22;9834;48.076;11.878;2023-02-15T05:51:00;-1.20;99.90
19397;DHT22;9834;48.076;11.878;2023-02-15T05:53:29;-1.20;99.90
19397;DHT22;9834;48.076;11.878;2023-02-15T05:55:57;-1.20;99.90
19397;DHT22;9834;48.076;11.878;2023-02-15T05:58:26;-1.20;99.90
19397;DHT22;9834;48.076;11.878;2023-02-15T06:00:54;-1.20;99.90
19397;DHT22;9834;48.076;11.878;2023-02-15T06:03:23;-1.20;99.90
19397;DHT22;9834;48.076;11.878;2023-02-15T06:05:54;-1.30;99.90
19397;DHT22;9834;48.076;11.878;2023-02-15T06:08:21;-1.30;99.90
19397;DHT22;9834;48.076;11.878;2023-02-15T06:10:48;-1.20;99.90
19397;DHT22;9834;48.076;11.878;2023-02-15T06:13:15;-1.20;99.90
19397;DHT22;9834;48.076;11.878;2023-02-15T06:15:43;-1.20;99.90
19397;DHT22;9834;48.076;11.878;2023-02-15T06:18:10;-1.20;99.90
19397;DHT22;9834;48.076;11.878;2023-02-15T06:20:39;-1.20;99.90
19397;DHT22;9834;48.076;11.878;2023-02-15T06:23:06;-1.20;99.90
19397;DHT22;9834;48.076;11.878;2023-02-15T06:25:33;-1.30;99.90
19397;DHT22;9834;48.076;11.878;2023-02-15T06:28:00;-1.30;99.90
19397;DHT22;9834;48.076;11.878;2023-02-15T06:30:28;-1.30;99.90
19397;DHT22;9834;48.076;11.878;2023-02-15T06:32:55;-1.30;99.90
19397;DHT22;9834;48.076;11.878;2023-02-15T06:35:22;-1.30;99.90
19397;DHT22;9834;48.076;11.878;2023-02-15T06:37:50;-1.30;99.90
19397;DHT22;9834;48.076;11.878;2023-02-15T06:40:17;-1.40;99.90
19397;DHT22;9834;48.076;11.878;2023-02-15T06:42:45;-1.40;99.90
19397;DHT22;9834;48.076;11.878;2023-02-15T06:45:12;-1.50;99.90
19397;DHT22;9834;48.076;11.878;2023-02-15T06:47:39;-1.50;99.90
19397;DHT22;9834;48.076;11.878;2023-02-15T06:50:07;-1.50;99.90
19397;DHT22;9834;48.076;11.878;2023-02-15T06:52:34;-1.40;99.90
19397;DHT22;9834;48.076;11.878;2023-02-15T06:55:03;-1.40;99.90
19397;DHT22;9834;48.076;11.878;2023-02-15T06:57:30;-1.30;99.90
19397;DHT22;9834;48.076;11.878;2023-02-15T06:59:58;-1.30;99.90
19397;DHT22;9834;48.076;11.878;2023-02-15T07:02:25;-1.20;99.90
19397;DHT22;9834;48.076;11.878;2023-02-15T07:04:52;-1.10;99.90
19397;DHT22;9834;48.076;11.878;2023-02-15T07:07:20;-1.10;99.90
19397;DHT22;9834;48.076;11.878;2023-02-15T07:09:47;-1.10;99.90
19397;DHT22;9834;48.076;11.878;2023-02-15T07:12:16;-1.00;99.90
19397;DHT22;9834;48.076;11.878;2023-02-15T07:15:01;-0.90;99.90
19397;DHT22;9834;48.076;11.878;2023-02-15T07:17:30;-0.70;99.90
19397;DHT22;9834;48.076;11.878;2023-02-15T07:19:57;-0.70;99.90
19397;DHT22;9834;48.076;11.878;2023-02-15T07:22:25;-0.70;99.90
19397;DHT22;9834;48.076;11.878;2023-02-15T07:24:53;-0.70;99.90
19397;DHT22;9834;48.076;11.878;2023-02-15T07:27:23;-0.70;99.90
19397;DHT22;9834;48.076;11.878;2023-02-15T07:29:50;-0.70;99.90
19397;DHT22;9834;48.076;11.878;2023-02-15T07:32:18;-0.60;99.90
19397;DHT22;9834;48.076;11.878;2023-02-15T07:34:45;-0.60;99.90
19397;DHT22;9834;48.076;11.878;2023-02-15T07:37:12;-0.50;99.90
19397;DHT22;9834;48.076;11.878;2023-02-15T07:39:39;-0.40;99.90
19397;DHT22;9834;48.076;11.878;2023-02-15T07:42:07;-0.40;99.90
19397;DHT22;9834;48.076;11.878;2023-02-15T07:44:36;-0.50;99.90
19397;DHT22;9834;48.076;11.878;2023-02-15T07:47:03;-0.30;99.90
19397;DHT22;9834;48.076;11.878;2023-02-15T07:49:31;-0.20;99.90
19397;DHT22;9834;48.076;11.878;2023-02-15T07:52:00;-0.20;99.90
19397;DHT22;9834;48.076;11.878;2023-02-15T07:54:28;-0.10;99.90
19397;DHT22;9834;48.076;11.878;2023-02-15T07:56:55;-0.10;99.90
19397;DHT22;9834;48.076;11.878;2023-02-15T07:59:23;-0.10;99.90
19397;DHT22;9834;48.076;11.878;2023-02-15T08:01:52;0.00;99.90
19397;DHT22;9834;48.076;11.878;2023-02-15T08:04:21;0.00;99.90
19397;DHT22;9834;48.076;11.878;2023-02-15T08:06:52;0.10;99.90
19397;DHT22;9834;48.076;11.878;2023-02-15T08:09:21;0.10;99.90
19397;DHT22;9834;48.076;11.878;2023-02-15T08:11:48;0.20;99.90
19397;DHT22;9834;48.076;11.878;2023-02-15T08:14:17;0.20;99.90
19397;DHT22;9834;48.076;11.878;2023-02-15T08:16:45;0.40;99.90
19397;DHT22;9834;48.076;11.878;2023-02-15T08:19:16;0.50;99.90
19397;DHT22;9834;48.076;11.878;2023-02-15T08:21:45;0.60;99.90
19397;DHT22;9834;48.076;11.878;2023-02-15T08:24:13;0.80;99.90
19397;DHT22;9834;48.076;11.878;2023-02-15T08:26:42;0.80;99.90
19397;DHT22;9834;48.076;11.878;2023-02-15T08:29:10;0.90;99.90
19397;DHT22;9834;48.076;11.878;2023-02-15T08:31:38;0.90;99.90
19397;DHT22;9834;48.076;11.878;2023-02-15T08:34:07;0.90;99.90
19397;DHT22;9834;48.076;11.878;2023-02-15T08:36:36;1.10;99.90
19397;DHT22;9834;48.076;11.878;2023-02-15T08:39:05;1.20;99.90
19397;DHT22;9834;48.076;11.878;2023-02-15T08:41:34;1.40;99.90
19397;DHT22;9834;48.076;11.878;2023-02-15T08:44:02;1.60;99.90
19397;DHT22;9834;48.076;11.878;2023-02-15T08:46:31;1.70;99.90
19397;DHT22;9834;48.076;11.878;2023-02-15T08:48:59;1.70;99.90
19397;DHT22;9834;48.076;11.878;2023-02-15T08:51:28;1.70;99.90
19397;DHT22;9834;48.076;11.878;2023-02-15T08:53:58;1.70;99.90
19397;DHT22;9834;48.076;11.878;2023-02-15T08:56:27;1.90;99.90
19397;DHT22;9834;48.076;11.878;2023-02-15T08:58:56;1.90;99.90
19397;DHT22;9834;48.076;11.878;2023-02-15T09:01:25;1.90;99.90
19397;DHT22;9834;48.076;11.878;2023-02-15T09:03:57;2.00;99.90
19397;DHT22;9834;48.076;11.878;2023-02-15T09:06:25;2.10;99.90
19397;DHT22;9834;48.076;11.878;2023-02-15T09:08:54;2.20;99.90
19397;DHT22;9834;48.076;11.878;2023-02-15T09:11:24;2.20;99.90
19397;DHT22;9834;48.076;11.878;2023-02-15T09:13:53;2.30;99.90
19397;DHT22;9834;48.076;11.878;2023-02-15T09:16:23;2.30;99.90
19397;DHT22;9834;48.076;11.878;2023-02-15T09:18:51;2.40;99.90
19397;DHT22;9834;48.076;11.878;2023-02-15T09:21:21;2.70;99.90
19397;DHT22;9834;48.076;11.878;2023-02-15T09:23:49;2.80;99.90
19397;DHT22;9834;48.076;11.878;2023-02-15T09:26:18;3.10;99.90
19397;DHT22;9834;48.076;11.878;2023-02-15T09:28:50;3.10;99.90
19397;DHT22;9834;48.076;11.878;2023-02-15T09:31:20;3.10;99.90
19397;DHT22;9834;48.076;11.878;2023-02-15T09:33:48;3.30;99.90
19397;DHT22;9834;48.076;11.878;2023-02-15T09:36:17;3.40;99.90
19397;DHT22;9834;48.076;11.878;2023-02-15T09:38:45;3.40;99.90
19397;DHT22;9834;48.076;11.878;2023-02-15T09:41:32;3.40;99.90
19397;DHT22;9834;48.076;11.878;2023-02-15T09:44:14;3.50;99.90
19397;DHT22;9834;48.076;11.878;2023-02-15T09:47:01;3.40;99.90
19397;DHT22;9834;48.076;11.878;2023-02-15T09:49:39;3.70;99.90
19397;DHT22;9834;48.076;11.878;2023-02-15T09:52:36;3.60;99.90
19397;DHT22;9834;48.076;11.878;2023-02-15T09:55:17;3.40;99.90
19397;DHT22;9834;48.076;11.878;2023-02-15T09:57:53;3.70;99.90
19397;DHT22;9834;48.076;11.878;2023-02-15T10:00:27;3.90;99.90
19397;DHT22;9834;48.076;11.878;2023-02-15T10:03:23;4.00;99.90
19397;DHT22;9834;48.076;11.878;2023-02-15T10:06:11;4.10;99.90
19397;DHT22;9834;48.076;11.878;2023-02-15T10:11:44;4.20;99.90
19397;DHT22;9834;48.076;11.878;2023-02-15T10:14:41;4.40;99.90
19397;DHT22;9834;48.076;11.878;2023-02-15T10:17:25;4.60;99.90
19397;DHT22;9834;48.076;11.878;2023-02-15T10:20:08;4.70;99.90
19397;DHT22;9834;48.076;11.878;2023-02-15T10:22:54;4.90;99.90
19397;DHT22;9834;48.076;11.878;2023-02-15T10:25:31;5.10;99.90
19397;DHT22;9834;48.076;11.878;2023-02-15T10:28:05;5.30;99.90
19397;DHT22;9834;48.076;11.878;2023-02-15T10:30:40;5.60;99.90
19397;DHT22;9834;48.076;11.878;2023-02-15T10:33:18;5.70;99.90
19397;DHT22;9834;48.076;11.878;2023-02-15T10:35:54;5.90;99.90
19397;DHT22;9834;48.076;11.878;2023-02-15T10:38:28;6.20;99.90
19397;DHT22;9834;48.076;11.878;2023-02-15T10:41:09;6.40;99.90
19397;DHT22;9834;48.076;11.878;2023-02-15T10:43:49;6.70;99.90
19397;DHT22;9834;48.076;11.878;2023-02-15T10:46:31;6.90;97.50
19397;DHT22;9834;48.076;11.878;2023-02-15T10:49:21;7.20;97.00
19397;DHT22;9834;48.076;11.878;2023-02-15T10:52:00;7.30;93.90
19397;DHT22;9834;48.076;11.878;2023-02-15T10:54:36;7.50;93.50
19397;DHT22;9834;48.076;11.878;2023-02-15T10:57:13;7.80;94.90
19397;DHT22;9834;48.076;11.878;2023-02-15T11:02:55;8.50;91.50
19397;DHT22;9834;48.076;11.878;2023-02-15T11:05:35;8.80;89.10
19397;DHT22;9834;48.076;11.878;2023-02-15T11:08:06;9.10;88.40
19397;DHT22;9834;48.076;11.878;2023-02-15T11:10:37;9.60;89.10
19397;DHT22;9834;48.076;11.878;2023-02-15T11:13:09;10.00;83.00
19397;DHT22;9834;48.076;11.878;2023-02-15T11:15:40;10.20;81.70
19397;DHT22;9834;48.076;11.878;2023-02-15T11:18:14;10.60;78.50
19397;DHT22;9834;48.076;11.878;2023-02-15T11:20:49;10.70;75.40
19397;DHT22;9834;48.076;11.878;2023-02-15T11:23:21;11.10;75.90
19397;DHT22;9834;48.076;11.878;2023-02-15T11:25:56;11.50;75.80
19397;DHT22;9834;48.076;11.878;2023-02-15T11:28:29;11.50;72.90
19397;DHT22;9834;48.076;11.878;2023-02-15T11:31:02;11.30;72.70
19397;DHT22;9834;48.076;11.878;2023-02-15T11:33:33;11.60;72.10
19397;DHT22;9834;48.076;11.878;2023-02-15T11:36:08;11.90;71.70
19397;DHT22;9834;48.076;11.878;2023-02-15T11:38:36;12.40;69.20
19397;DHT22;9834;48.076;11.878;2023-02-15T11:41:11;12.80;67.50
19397;DHT22;9834;48.076;11.878;2023-02-15T11:43:42;13.40;65.00
19397;DHT22;9834;48.076;11.878;2023-02-15T11:46:12;13.20;63.00
19397;DHT22;9834;48.076;11.878;2023-02-15T11:48:41;13.20;62.30
19397;DHT22;9834;48.076;11.878;2023-02-15T11:51:13;13.70;63.80
19397;DHT22;9834;48.076;11.878;2023-02-15T11:53:42;14.10;60.40
19397;DHT22;9834;48.076;11.878;2023-02-15T11:56:14;14.60;60.30
19397;DHT22;9834;48.076;11.878;2023-02-15T11:58:44;14.90;58.20
19397;DHT22;9834;48.076;11.878;2023-02-15T12:01:16;15.10;57.50
19397;DHT22;9834;48.076;11.878;2023-02-15T12:03:46;15.30;57.30
19397;DHT22;9834;48.076;11.878;2023-02-15T12:06:21;15.60;56.20
19397;DHT22;9834;48.076;11.878;2023-02-15T12:08:54;15.60;55.20
19397;DHT22;9834;48.076;11.878;2023-02-15T12:11:29;15.60;55.60
19397;DHT22;9834;48.076;11.878;2023-02-15T12:14:00;15.30;54.00
19397;DHT22;9834;48.076;11.878;2023-02-15T12:16:28;16.10;55.80
19397;DHT22;9834;48.076;11.878;2023-02-15T12:18:58;16.70;53.80
19397;DHT22;9834;48.076;11.878;2023-02-15T12:21:29;17.30;52.70
19397;DHT22;9834;48.076;11.878;2023-02-15T12:24:00;17.40;50.60
19397;DHT22;9834;48.076;11.878;2023-02-15T12:26:30;17.70;49.30
19397;DHT22;9834;48.076;11.878;2023-02-15T12:28:59;17.70;49.50
19397;DHT22;9834;48.076;11.878;2023-02-15T12:31:32;17.80;50.50
19397;DHT22;9834;48.076;11.878;2023-02-15T12:34:09;17.90;49.10
19397;DHT22;9834;48.076;11.878;2023-02-15T12:36:44;18.40;49.00
19397;DHT22;9834;48.076;11.878;2023-02-15T12:39:19;18.20;49.10
19397;DHT22;9834;48.076;11.878;2023-02-15T12:41:59;18.20;49.10
19397;DHT22;9834;48.076;11.878;2023-02-15T12:44:28;18.60;48.80
19397;DHT22;9834;48.076;11.878;2023-02-15T12:46:58;19.10;47.90
19397;DHT22;9834;48.076;11.878;2023-02-15T12:49:26;18.80;46.00
19397;DHT22;9834;48.076;11.878;2023-02-15T12:51:56;19.10;47.10
19397;DHT22;9834;48.076;11.878;2023-02-15T12:54:34;19.60;46.90
19397;DHT22;9834;48.076;11.878;2023-02-15T12:57:21;19.70;46.10
19397;DHT22;9834;48.076;11.878;2023-02-15T12:59:53;19.90;46.00
19397;DHT22;9834;48.076;11.878;2023-02-15T13:02:30;20.30;44.20
19397;DHT22;9834;48.076;11.878;2023-02-15T13:05:04;20.40;44.00
19397;DHT22;9834;48.076;11.878;2023-02-15T13:07:34;21.00;44.00
19397;DHT22;9834;48.076;11.878;2023-02-15T13:10:04;21.10;43.80
19397;DHT22;9834;48.076;11.878;2023-02-15T13:12:32;21.20;43.70
19397;DHT22;9834;48.076;11.878;2023-02-15T13:15:00;21.40;43.70
19397;DHT22;9834;48.076;11.878;2023-02-15T13:17:30;21.80;42.60
19397;DHT22;9834;48.076;11.878;2023-02-15T13:20:02;21.70;41.60
19397;DHT22;9834;48.076;11.878;2023-02-15T13:22:38;21.70;43.10
19397;DHT22;9834;48.076;11.878;2023-02-15T13:25:14;21.80;42.50
19397;DHT22;9834;48.076;11.878;2023-02-15T13:27:45;22.40;42.60
19397;DHT22;9834;48.076;11.878;2023-02-15T13:30:24;22.30;41.50
19397;DHT22;9834;48.076;11.878;2023-02-15T13:32:54;22.60;41.10
19397;DHT22;9834;48.076;11.878;2023-02-15T13:35:25;22.70;41.10
19397;DHT22;9834;48.076;11.878;2023-02-15T13:38:16;23.20;40.60
19397;DHT22;9834;48.076;11.878;2023-02-15T13:40:52;23.50;38.20
19397;DHT22;9834;48.076;11.878;2023-02-15T13:43:36;23.20;38.90
19397;DHT22;9834;48.076;11.878;2023-02-15T13:46:22;23.40;39.50
19397;DHT22;9834;48.076;11.878;2023-02-15T13:49:02;23.70;39.40
19397;DHT22;9834;48.076;11.878;2023-02-15T13:51:38;24.20;38.10
19397;DHT22;9834;48.076;11.878;2023-02-15T13:57:32;24.10;37.70
19397;DHT22;9834;48.076;11.878;2023-02-15T14:00:14;24.20;37.00
19397;DHT22;9834;48.076;11.878;2023-02-15T14:03:12;24.70;37.20
19397;DHT22;9834;48.076;11.878;2023-02-15T14:06:05;24.00;36.40
19397;DHT22;9834;48.076;11.878;2023-02-15T14:08:45;24.30;37.50
19397;DHT22;9834;48.076;11.878;2023-02-15T14:11:21;24.30;37.40
19397;DHT22;9834;48.076;11.878;2023-02-15T14:14:23;24.90;37.00
19397;DHT22;9834;48.076;11.878;2023-02-15T14:17:00;25.00;36.40
19397;DHT22;9834;48.076;11.878;2023-02-15T14:19:35;24.50;35.90
19397;DHT22;9834;48.076;11.878;2023-02-15T14:22:11;24.90;37.00
19397;DHT22;9834;48.076;11.878;2023-02-15T14:24:52;25.70;36.60
19397;DHT22;9834;48.076;11.878;2023-02-15T14:27:36;26.50;34.60
19397;DHT22;9834;48.076;11.878;2023-02-15T14:30:17;26.90;33.80
19397;DHT22;9834;48.076;11.878;2023-02-15T14:32:49;26.50;33.20
19397;DHT22;9834;48.076;11.878;2023-02-15T14:35:19;27.20;33.20
19397;DHT22;9834;48.076;11.878;2023-02-15T14:37:52;27.50;33.50
19397;DHT22;9834;48.076;11.878;2023-02-15T14:40:32;27.40;33.00
19397;DHT22;9834;48.076;11.878;2023-02-15T14:43:29;27.50;33.70
19397;DHT22;9834;48.076;11.878;2023-02-15T14:46:02;28.00;31.50
19397;DHT22;9834;48.076;11.878;2023-02-15T14:48:33;27.80;32.00
19397;DHT22;9834;48.076;11.878;2023-02-15T14:51:05;28.10;30.60
19397;DHT22;9834;48.076;11.878;2023-02-15T14:53:37;27.30;32.00
19397;DHT22;9834;48.076;11.878;2023-02-15T14:56:17;27.10;31.70
19397;DHT22;9834;48.076;11.878;2023-02-15T14:59:11;27.60;32.10
19397;DHT22;9834;48.076;11.878;2023-02-15T15:01:40;27.90;31.20
19397;DHT22;9834;48.076;11.878;2023-02-15T15:04:10;28.20;30.90
19397;DHT22;9834;48.076;11.878;2023-02-15T15:06:41;28.00;30.20
19397;DHT22;9834;48.076;11.878;2023-02-15T15:09:12;27.20;31.70
19397;DHT22;9834;48.076;11.878;2023-02-15T15:11:44;27.30;32.00
19397;DHT22;9834;48.076;11.878;2023-02-15T15:14:42;27.50;31.40
19397;DHT22;9834;48.076;11.878;2023-02-15T15:17:14;27.50;31.40
19397;DHT22;9834;48.076;11.878;2023-02-15T15:20:04;27.40;31.30
19397;DHT22;9834;48.076;11.878;2023-02-15T15:22:40;27.50;31.50
19397;DHT22;9834;48.076;11.878;2023-02-15T15:25:40;27.20;31.70
19397;DHT22;9834;48.076;11.878;2023-02-15T15:28:08;26.30;32.50
19397;DHT22;9834;48.076;11.878;2023-02-15T15:31:03;25.70;33.40
19397;DHT22;9834;48.076;11.878;2023-02-15T15:37:24;24.60;35.50
19397;DHT22;9834;48.076;11.878;2023-02-15T15:46:09;20.40;39.30
19397;DHT22;9834;48.076;11.878;2023-02-15T15:48:41;18.40;42.20
19397;DHT22;9834;48.076;11.878;2023-02-15T15:51:14;16.70;45.60
19397;DHT22;9834;48.076;11.878;2023-02-15T15:53:46;15.10;48.00
19397;DHT22;9834;48.076;11.878;2023-02-15T15:56:20;13.80;50.60
19397;DHT22;9834;48.076;11.878;2023-02-15T15:58:51;12.60;54.30
19397;DHT22;9834;48.076;11.878;2023-02-15T16:01:27;11.50;56.60
19397;DHT22;9834;48.076;11.878;2023-02-15T16:03:56;10.80;57.90
19397;DHT22;9834;48.076;11.878;2023-02-15T16:06:29;10.10;60.20
19397;DHT22;9834;48.076;11.878;2023-02-15T16:08:57;9.60;64.60
19397;DHT22;9834;48.076;11.878;2023-02-15T16:11:27;9.20;65.80
19397;DHT22;9834;48.076;11.878;2023-02-15T16:13:56;8.80;68.70
19397;DHT22;9834;48.076;11.878;2023-02-15T16:16:27;8.50;70.70
19397;DHT22;9834;48.076;11.878;2023-02-15T16:18:57;8.20;73.00
19397;DHT22;9834;48.076;11.878;2023-02-15T16:21:28;8.00;75.60
19397;DHT22;9834;48.076;11.878;2023-02-15T16:24:19;7.80;76.40
19397;DHT22;9834;48.076;11.878;2023-02-15T16:29:55;7.30;79.40
19397;DHT22;9834;48.076;11.878;2023-02-15T16:32:25;6.90;81.70
19397;DHT22;9834;48.076;11.878;2023-02-15T16:34:54;6.70;82.30
19397;DHT22;9834;48.076;11.878;2023-02-15T16:37:23;6.40;83.20